sensor_id;sensor_type;location;lat;lon;timestamp;temperature;humidity
26803;DHT22;14378;51.796;5.808;2023-02-13T00:05:35;9.20;99.90
26803;DHT22;14378;51.796;5.808;2023-02-13T00:07:37;9.20;99.90
26803;DHT22;14378;51.796;5.808;2023-02-13T00:09:38;9.20;99.90
26803;DHT22;14378;51.796;5.808;2023-02-13T00:11:39;9.20;99.90
26803;DHT22;14378;51.796;5.808;2023-02-13T00:13:46;9.20;99.90
26803;DHT22;14378;51.796;5.808;2023-02-13T00:15:58;9.20;99.90
26803;DHT22;14378;51.796;5.808;2023-02-13T00:18:01;9.10;99.90
26803;DHT22;14378;51.796;5.808;2023-02-13T00:20:02;9.10;99.90
26803;DHT22;14378;51.796;5.808;2023-02-13T00:22:04;9.20;99.90
26803;DHT22;14378;51.796;5.808;2023-02-13T00:24:05;9.10;99.90
26803;DHT22;14378;51.796;5.808;2023-02-13T00:26:09;9.10;99.90
26803;DHT22;14378;51.796;5.808;2023-02-13T00:28:12;9.10;99.90
26803;DHT22;14378;51.796;5.808;2023-02-13T00:30:16;9.10;99.90
26803;DHT22;14378;51.796;5.808;2023-02-13T00:32:17;9.10;99.90
26803;DHT22;14378;51.796;5.808;2023-02-13T00:34:18;9.10;99.90
26803;DHT22;14378;51.796;5.808;2023-02-13T00:36:20;9.10;99.90
26803;DHT22;14378;51.796;5.808;2023-02-13T00:38:22;9.10;99.90
26803;DHT22;14378;51.796;5.808;2023-02-13T00:40:23;9.10;99.90
26803;DHT22;14378;51.796;5.808;2023-02-13T00:42:24;9.20;99.90
26803;DHT22;14378;51.796;5.808;2023-02-13T00:44:26;9.10;99.90
26803;DHT22;14378;51.796;5.808;2023-02-13T00:46:28;9.20;99.90
26803;DHT22;14378;51.796;5.808;2023-02-13T00:48:31;9.20;99.90
26803;DHT22;14378;51.796;5.808;2023-02-13T00:50:32;9.10;99.90
26803;DHT22;14378;51.796;5.808;2023-02-13T00:52:33;9.20;99.90
26803;DHT22;14378;51.796;5.808;2023-02-13T00:54:34;9.10;99.90
26803;DHT22;14378;51.796;5.808;2023-02-13T00:56:35;9.20;99.90
26803;DHT22;14378;51.796;5.808;2023-02-13T00:58:36;9.10;99.90
26803;DHT22;14378;51.796;5.808;2023-02-13T01:03:27;9.20;99.90
26803;DHT22;14378;51.796;5.808;2023-02-13T01:05:28;9.10;99.90
26803;DHT22;14378;51.796;5.808;2023-02-13T01:07:29;9.10;99.90
26803;DHT22;14378;51.796;5.808;2023-02-13T01:09:30;9.10;99.90
26803;DHT22;14378;51.796;5.808;2023-02-13T01:11:31;9.10;99.90
26803;DHT22;14378;51.796;5.808;2023-02-13T01:13:34;9.10;99.90
26803;DHT22;14378;51.796;5.808;2023-02-13T01:15:36;9.10;99.90
26803;DHT22;14378;51.796;5.808;2023-02-13T01:17:37;9.10;99.90
26803;DHT22;14378;51.796;5.808;2023-02-13T01:19:44;9.10;99.90
26803;DHT22;14378;51.796;5.808;2023-02-13T01:21:46;9.10;99.90
26803;DHT22;14378;51.796;5.808;2023-02-13T01:23:47;9.10;99.90
26803;DHT22;14378;51.796;5.808;2023-02-13T01:25:54;9.10;99.90
26803;DHT22;14378;51.796;5.808;2023-02-13T01:27:55;9.10;99.90
26803;DHT22;14378;51.796;5.808;2023-02-13T01:29:56;9.10;99.90
26803;DHT22;14378;51.796;5.808;2023-02-13T01:31:58;9.10;99.90
26803;DHT22;14378;51.796;5.808;2023-02-13T01:34:02;9.10;99.90
26803;DHT22;14378;51.796;5.808;2023-02-13T01:36:07;9.10;99.90
26803;DHT22;14378;51.796;5.808;2023-02-13T01:38:11;9.10;99.90
26803;DHT22;14378;51.796;5.808;2023-02-13T01:40:13;9.10;99.90
26803;DHT22;14378;51.796;5.808;2023-02-13T01:42:20;9.20;99.90
26803;DHT22;14378;51.796;5.808;2023-02-13T01:44:50;9.20;99.90
26803;DHT22;14378;51.796;5.808;2023-02-13T01:46:51;9.20;99.90
26803;DHT22;14378;51.796;5.808;2023-02-13T01:48:55;9.20;99.90
26803;DHT22;14378;51.796;5.808;2023-02-13T01:51:03;9.20;99.90
26803;DHT22;14378;51.796;5.808;2023-02-13T01:53:26;9.20;99.90
26803;DHT22;14378;51.796;5.808;2023-02-13T01:55:28;9.20;99.90
26803;DHT22;14378;51.796;5.808;2023-02-13T01:57:31;9.10;99.90
26803;DHT22;14378;51.796;5.808;2023-02-13T01:59:56;9.20;99.90
26803;DHT22;14378;51.796;5.808;2023-02-13T02:02:01;9.10;99.90
26803;DHT22;14378;51.796;5.808;2023-02-13T02:04:18;9.20;99.90
26803;DHT22;14378;51.796;5.808;2023-02-13T02:06:25;9.20;99.90
26803;DHT22;14378;51.796;5.808;2023-02-13T02:08:34;9.20;99.90
26803;DHT22;14378;51.796;5.808;2023-02-13T02:10:37;9.20;99.90
26803;DHT22;14378;51.796;5.808;2023-02-13T02:13:13;9.20;99.90
26803;DHT22;14378;51.796;5.808;2023-02-13T02:15:15;9.20;99.90
26803;DHT22;14378;51.796;5.808;2023-02-13T02:17:16;9.20;99.90
26803;DHT22;14378;51.796;5.808;2023-02-13T02:22:13;9.20;99.90
26803;DHT22;14378;51.796;5.808;2023-02-13T02:24:28;9.20;99.90
26803;DHT22;14378;51.796;5.808;2023-02-13T02:34:08;9.20;99.90
26803;DHT22;14378;51.796;5.808;2023-02-13T02:39:04;9.20;99.90
26803;DHT22;14378;51.796;5.808;2023-02-13T02:44:09;9.20;99.90
26803;DHT22;14378;51.796;5.808;2023-02-13T02:49:18;9.20;99.90
26803;DHT22;14378;51.796;5.808;2023-02-13T02:51:40;9.20;99.90
26803;DHT22;14378;51.796;5.808;2023-02-13T02:54:07;9.20;99.90
26803;DHT22;14378;51.796;5.808;2023-02-13T02:56:39;9.10;99.90
26803;DHT22;14378;51.796;5.808;2023-02-13T02:59:00;9.20;99.90
26803;DHT22;14378;51.796;5.808;2023-02-13T03:03:29;9.10;99.90
26803;DHT22;14378;51.796;5.808;2023-02-13T03:05:51;9.20;99.90
26803;DHT22;14378;51.796;5.808;2023-02-13T03:08:11;9.10;99.90
26803;DHT22;14378;51.796;5.808;2023-02-13T03:10:21;9.10;99.90
26803;DHT22;14378;51.796;5.808;2023-02-13T03:13:08;9.10;99.90
26803;DHT22;14378;51.796;5.808;2023-02-13T03:15:24;9.10;99.90
26803;DHT22;14378;51.796;5.808;2023-02-13T03:17:26;9.10;99.90
26803;DHT22;14378;51.796;5.808;2023-02-13T03:25:20;9.10;99.90
26803;DHT22;14378;51.796;5.808;2023-02-13T03:27:58;9.10;99.90
26803;DHT22;14378;51.796;5.808;2023-02-13T03:35:36;9.10;99.90
26803;DHT22;14378;51.796;5.808;2023-02-13T03:38:04;9.10;99.90
26803;DHT22;14378;51.796;5.808;2023-02-13T03:45:29;9.10;99.90
26803;DHT22;14378;51.796;5.808;2023-02-13T03:47:56;9.10;99.90
26803;DHT22;14378;51.796;5.808;2023-02-13T03:50:01;9.10;99.90
26803;DHT22;14378;51.796;5.808;2023-02-13T03:54:48;9.10;99.90
26803;DHT22;14378;51.796;5.808;2023-02-13T03:57:11;9.10;99.90
26803;DHT22;14378;51.796;5.808;2023-02-13T03:59:35;9.10;99.90
26803;DHT22;14378;51.796;5.808;2023-02-13T04:01:38;9.10;99.90
26803;DHT22;14378;51.796;5.808;2023-02-13T04:04:04;9.10;99.90
26803;DHT22;14378;51.796;5.808;2023-02-13T04:06:15;9.10;99.90
26803;DHT22;14378;51.796;5.808;2023-02-13T04:08:16;9.10;99.90
26803;DHT22;14378;51.796;5.808;2023-02-13T04:10:18;9.10;99.90
26803;DHT22;14378;51.796;5.808;2023-02-13T04:12:45;9.10;99.90
26803;DHT22;14378;51.796;5.808;2023-02-13T04:14:57;9.10;99.90
26803;DHT22;14378;51.796;5.808;2023-02-13T04:17:05;9.10;99.90
26803;DHT22;14378;51.796;5.808;2023-02-13T04:19:08;9.10;99.90
26803;DHT22;14378;51.796;5.808;2023-02-13T04:21:10;9.10;99.90
26803;DHT22;14378;51.796;5.808;2023-02-13T04:23:12;9.10;99.90
26803;DHT22;14378;51.796;5.808;2023-02-13T04:25:18;9.10;99.90
26803;DHT22;14378;51.796;5.808;2023-02-13T04:27:20;9.10;99.90
26803;DHT22;14378;51.796;5.808;2023-02-13T04:29:23;9.10;99.90
26803;DHT22;14378;51.796;5.808;2023-02-13T04:31:24;9.10;99.90
26803;DHT22;14378;51.796;5.808;2023-02-13T04:33:25;9.10;99.90
26803;DHT22;14378;51.796;5.808;2023-02-13T04:35:26;9.10;99.90
26803;DHT22;14378;51.796;5.808;2023-02-13T04:37:27;9.10;99.90
26803;DHT22;14378;51.796;5.808;2023-02-13T04:39:28;9.10;99.90
26803;DHT22;14378;51.796;5.808;2023-02-13T04:41:32;9.10;99.90
26803;DHT22;14378;51.796;5.808;2023-02-13T04:43:33;9.10;99.90
26803;DHT22;14378;51.796;5.808;2023-02-13T04:45:34;9.10;99.90
26803;DHT22;14378;51.796;5.808;2023-02-13T04:47:35;9.10;99.90
26803;DHT22;14378;51.796;5.808;2023-02-13T04:49:36;9.10;99.90
26803;DHT22;14378;51.796;5.808;2023-02-13T04:51:37;9.00;99.90
26803;DHT22;14378;51.796;5.808;2023-02-13T04:53:41;9.00;99.90
26803;DHT22;14378;51.796;5.808;2023-02-13T04:55:42;9.00;99.90
26803;DHT22;14378;51.796;5.808;2023-02-13T04:57:44;9.00;99.90
26803;DHT22;14378;51.796;5.808;2023-02-13T04:59:45;9.00;99.90
26803;DHT22;14378;51.796;5.808;2023-02-13T05:01:46;9.00;99.90
26803;DHT22;14378;51.796;5.808;2023-02-13T05:03:47;9.00;99.90
26803;DHT22;14378;51.796;5.808;2023-02-13T05:05:48;9.00;99.90
26803;DHT22;14378;51.796;5.808;2023-02-13T05:07:49;9.00;99.90
26803;DHT22;14378;51.796;5.808;2023-02-13T05:09:50;8.90;99.90
26803;DHT22;14378;51.796;5.808;2023-02-13T05:11:52;8.90;99.90
26803;DHT22;14378;51.796;5.808;2023-02-13T05:13:54;8.90;99.90
26803;DHT22;14378;51.796;5.808;2023-02-13T05:15:54;8.90;99.90
26803;DHT22;14378;51.796;5.808;2023-02-13T05:17:55;8.90;99.90
26803;DHT22;14378;51.796;5.808;2023-02-13T05:19:56;8.90;99.90
26803;DHT22;14378;51.796;5.808;2023-02-13T05:21:59;8.90;99.90
26803;DHT22;14378;51.796;5.808;2023-02-13T05:24:18;8.90;99.90
26803;DHT22;14378;51.796;5.808;2023-02-13T05:26:19;8.90;99.90
26803;DHT22;14378;51.796;5.808;2023-02-13T05:28:20;8.90;99.90
26803;DHT22;14378;51.796;5.808;2023-02-13T05:30:39;8.90;99.90
26803;DHT22;14378;51.796;5.808;2023-02-13T05:32:44;8.80;99.90
26803;DHT22;14378;51.796;5.808;2023-02-13T05:34:45;8.80;99.90
26803;DHT22;14378;51.796;5.808;2023-02-13T05:36:47;8.80;99.90
26803;DHT22;14378;51.796;5.808;2023-02-13T05:38:48;8.80;99.90
26803;DHT22;14378;51.796;5.808;2023-02-13T05:40:48;8.80;99.90
26803;DHT22;14378;51.796;5.808;2023-02-13T05:42:53;8.80;99.90
26803;DHT22;14378;51.796;5.808;2023-02-13T05:44:54;8.70;99.90
26803;DHT22;14378;51.796;5.808;2023-02-13T05:46:55;8.70;99.90
26803;DHT22;14378;51.796;5.808;2023-02-13T05:48:56;8.70;99.90
26803;DHT22;14378;51.796;5.808;2023-02-13T05:50:57;8.70;99.90
26803;DHT22;14378;51.796;5.808;2023-02-13T05:52:58;8.70;99.90
26803;DHT22;14378;51.796;5.808;2023-02-13T05:54:59;8.70;99.90
26803;DHT22;14378;51.796;5.808;2023-02-13T05:57:03;8.60;99.90
26803;DHT22;14378;51.796;5.808;2023-02-13T05:59:04;8.60;99.90
26803;DHT22;14378;51.796;5.808;2023-02-13T06:01:05;8.60;99.90
26803;DHT22;14378;51.796;5.808;2023-02-13T06:03:06;8.50;99.90
26803;DHT22;14378;51.796;5.808;2023-02-13T06:05:07;8.50;99.90
26803;DHT22;14378;51.796;5.808;2023-02-13T06:07:10;8.40;99.90
26803;DHT22;14378;51.796;5.808;2023-02-13T06:09:11;8.40;99.90
26803;DHT22;14378;51.796;5.808;2023-02-13T06:11:12;8.30;99.90
26803;DHT22;14378;51.796;5.808;2023-02-13T06:13:17;8.30;99.90
26803;DHT22;14378;51.796;5.808;2023-02-13T06:15:18;8.20;99.90
26803;DHT22;14378;51.796;5.808;2023-02-13T06:17:19;8.20;99.90
26803;DHT22;14378;51.796;5.808;2023-02-13T06:19:20;8.10;99.90
26803;DHT22;14378;51.796;5.808;2023-02-13T06:21:21;8.10;99.90
26803;DHT22;14378;51.796;5.808;2023-02-13T06:23:22;8.10;99.90
26803;DHT22;14378;51.796;5.808;2023-02-13T06:25:26;8.00;99.90
26803;DHT22;14378;51.796;5.808;2023-02-13T06:27:27;8.00;99.90
26803;DHT22;14378;51.796;5.808;2023-02-13T06:29:28;7.90;99.90
26803;DHT22;14378;51.796;5.808;2023-02-13T06:31:31;7.90;99.90
26803;DHT22;14378;51.796;5.808;2023-02-13T06:33:34;7.90;99.90
26803;DHT22;14378;51.796;5.808;2023-02-13T06:35:36;7.80;99.90
26803;DHT22;14378;51.796;5.808;2023-02-13T06:37:37;7.70;99.90
26803;DHT22;14378;51.796;5.808;2023-02-13T06:39:40;7.70;99.90
26803;DHT22;14378;51.796;5.808;2023-02-13T06:41:46;7.60;99.90
26803;DHT22;14378;51.796;5.808;2023-02-13T06:43:51;7.60;99.90
26803;DHT22;14378;51.796;5.808;2023-02-13T06:45:52;7.50;99.90
26803;DHT22;14378;51.796;5.808;2023-02-13T06:47:53;7.50;99.90
26803;DHT22;14378;51.796;5.808;2023-02-13T06:49:54;7.40;99.90
26803;DHT22;14378;51.796;5.808;2023-02-13T06:51:55;7.30;99.90
26803;DHT22;14378;51.796;5.808;2023-02-13T06:53:56;7.30;99.90
26803;DHT22;14378;51.796;5.808;2023-02-13T06:56:08;7.20;99.90
26803;DHT22;14378;51.796;5.808;2023-02-13T06:58:17;7.20;99.90
26803;DHT22;14378;51.796;5.808;2023-02-13T07:00:21;7.20;99.90
26803;DHT22;14378;51.796;5.808;2023-02-13T07:02:22;7.20;99.90
26803;DHT22;14378;51.796;5.808;2023-02-13T07:04:24;7.10;99.90
26803;DHT22;14378;51.796;5.808;2023-02-13T07:06:28;7.10;99.90
26803;DHT22;14378;51.796;5.808;2023-02-13T07:08:29;7.10;99.90
26803;DHT22;14378;51.796;5.808;2023-02-13T07:10:30;7.00;99.90
26803;DHT22;14378;51.796;5.808;2023-02-13T07:12:33;7.00;99.90
26803;DHT22;14378;51.796;5.808;2023-02-13T07:14:34;6.90;99.90
26803;DHT22;14378;51.796;5.808;2023-02-13T07:16:34;6.90;99.90
26803;DHT22;14378;51.796;5.808;2023-02-13T07:18:36;6.80;99.90
26803;DHT22;14378;51.796;5.808;2023-02-13T07:20:36;6.80;99.90
26803;DHT22;14378;51.796;5.808;2023-02-13T07:22:38;6.80;99.90
26803;DHT22;14378;51.796;5.808;2023-02-13T07:24:38;6.80;99.90
26803;DHT22;14378;51.796;5.808;2023-02-13T07:26:39;6.80;99.90
26803;DHT22;14378;51.796;5.808;2023-02-13T07:28:40;6.80;99.90
26803;DHT22;14378;51.796;5.808;2023-02-13T07:30:41;6.70;99.90
26803;DHT22;14378;51.796;5.808;2023-02-13T07:32:45;6.70;99.90
26803;DHT22;14378;51.796;5.808;2023-02-13T07:34:49;6.70;99.90
26803;DHT22;14378;51.796;5.808;2023-02-13T07:36:49;6.70;99.90
26803;DHT22;14378;51.796;5.808;2023-02-13T07:38:51;6.70;99.90
26803;DHT22;14378;51.796;5.808;2023-02-13T07:40:52;6.70;99.90
26803;DHT22;14378;51.796;5.808;2023-02-13T07:42:52;6.60;99.90
26803;DHT22;14378;51.796;5.808;2023-02-13T07:44:53;6.70;99.90
26803;DHT22;14378;51.796;5.808;2023-02-13T07:46:54;6.70;99.90
26803;DHT22;14378;51.796;5.808;2023-02-13T07:48:55;6.70;99.90
26803;DHT22;14378;51.796;5.808;2023-02-13T07:51:03;6.70;99.90
26803;DHT22;14378;51.796;5.808;2023-02-13T07:53:04;6.70;99.90
26803;DHT22;14378;51.796;5.808;2023-02-13T07:55:08;6.70;99.90
26803;DHT22;14378;51.796;5.808;2023-02-13T07:57:12;6.70;99.90
26803;DHT22;14378;51.796;5.808;2023-02-13T07:59:13;6.70;99.90
26803;DHT22;14378;51.796;5.808;2023-02-13T08:01:17;6.70;99.90
26803;DHT22;14378;51.796;5.808;2023-02-13T08:03:19;6.70;99.90
26803;DHT22;14378;51.796;5.808;2023-02-13T08:05:20;6.70;99.90
26803;DHT22;14378;51.796;5.808;2023-02-13T08:07:21;6.70;99.90
26803;DHT22;14378;51.796;5.808;2023-02-13T08:09:22;6.70;99.90
26803;DHT22;14378;51.796;5.808;2023-02-13T08:11:42;6.80;99.90
26803;DHT22;14378;51.796;5.808;2023-02-13T08:13:55;6.80;99.90
26803;DHT22;14378;51.796;5.808;2023-02-13T08:15:56;6.90;99.90
26803;DHT22;14378;51.796;5.808;2023-02-13T08:17:57;6.90;99.90
26803;DHT22;14378;51.796;5.808;2023-02-13T08:19:58;6.90;99.90
26803;DHT22;14378;51.796;5.808;2023-02-13T08:21:59;7.00;99.90
26803;DHT22;14378;51.796;5.808;2023-02-13T08:24:01;7.00;99.90
26803;DHT22;14378;51.796;5.808;2023-02-13T08:26:03;7.10;99.90
26803;DHT22;14378;51.796;5.808;2023-02-13T08:28:04;7.10;99.90
26803;DHT22;14378;51.796;5.808;2023-02-13T08:30:06;7.10;99.90
26803;DHT22;14378;51.796;5.808;2023-02-13T08:32:08;7.10;99.90
26803;DHT22;14378;51.796;5.808;2023-02-13T08:34:10;7.20;99.90
26803;DHT22;14378;51.796;5.808;2023-02-13T08:36:11;7.20;99.90
26803;DHT22;14378;51.796;5.808;2023-02-13T08:38:11;7.30;99.90
26803;DHT22;14378;51.796;5.808;2023-02-13T08:40:13;7.30;99.90
26803;DHT22;14378;51.796;5.808;2023-02-13T08:42:15;7.40;99.90
26803;DHT22;14378;51.796;5.808;2023-02-13T08:44:16;7.40;99.90
26803;DHT22;14378;51.796;5.808;2023-02-13T08:46:17;7.50;99.90
26803;DHT22;14378;51.796;5.808;2023-02-13T08:48:19;7.50;99.90
26803;DHT22;14378;51.796;5.808;2023-02-13T08:50:20;7.60;99.90
26803;DHT22;14378;51.796;5.808;2023-02-13T08:52:21;7.70;99.90
26803;DHT22;14378;51.796;5.808;2023-02-13T08:54:22;7.70;99.90
26803;DHT22;14378;51.796;5.808;2023-02-13T08:56:23;7.80;99.90
26803;DHT22;14378;51.796;5.808;2023-02-13T08:58:23;7.90;99.90
26803;DHT22;14378;51.796;5.808;2023-02-13T09:00:24;8.00;99.90
26803;DHT22;14378;51.796;5.808;2023-02-13T09:02:25;8.00;99.90
26803;DHT22;14378;51.796;5.808;2023-02-13T09:04:26;8.10;99.90
26803;DHT22;14378;51.796;5.808;2023-02-13T09:06:27;8.20;99.90
26803;DHT22;14378;51.796;5.808;2023-02-13T09:08:29;8.30;99.90
26803;DHT22;14378;51.796;5.808;2023-02-13T09:10:33;8.40;99.90
26803;DHT22;14378;51.796;5.808;2023-02-13T09:12:39;8.50;99.90
26803;DHT22;14378;51.796;5.808;2023-02-13T09:14:40;8.60;99.90
26803;DHT22;14378;51.796;5.808;2023-02-13T09:16:40;8.70;99.90
26803;DHT22;14378;51.796;5.808;2023-02-13T09:18:42;8.80;99.90
26803;DHT22;14378;51.796;5.808;2023-02-13T09:20:42;8.90;99.90
26803;DHT22;14378;51.796;5.808;2023-02-13T09:22:44;9.00;99.90
26803;DHT22;14378;51.796;5.808;2023-02-13T09:24:45;9.10;99.90
26803;DHT22;14378;51.796;5.808;2023-02-13T09:26:46;9.20;99.90
26803;DHT22;14378;51.796;5.808;2023-02-13T09:28:46;9.30;99.90
26803;DHT22;14378;51.796;5.808;2023-02-13T09:30:48;9.40;99.90
26803;DHT22;14378;51.796;5.808;2023-02-13T09:32:53;9.50;99.90
26803;DHT22;14378;51.796;5.808;2023-02-13T09:34:54;9.60;99.90
26803;DHT22;14378;51.796;5.808;2023-02-13T09:36:55;9.80;99.90
26803;DHT22;14378;51.796;5.808;2023-02-13T09:38:56;9.90;99.90
26803;DHT22;14378;51.796;5.808;2023-02-13T09:41:30;10.10;99.90
26803;DHT22;14378;51.796;5.808;2023-02-13T09:43:36;10.20;99.90
26803;DHT22;14378;51.796;5.808;2023-02-13T09:45:38;10.30;99.90
26803;DHT22;14378;51.796;5.808;2023-02-13T09:47:41;10.50;99.90
26803;DHT22;14378;51.796;5.808;2023-02-13T09:49:52;10.70;99.90
26803;DHT22;14378;51.796;5.808;2023-02-13T09:51:56;10.90;99.90
26803;DHT22;14378;51.796;5.808;2023-02-13T09:54:02;11.00;99.90
26803;DHT22;14378;51.796;5.808;2023-02-13T09:56:15;11.10;99.90
26803;DHT22;14378;51.796;5.808;2023-02-13T09:58:21;11.30;99.90
26803;DHT22;14378;51.796;5.808;2023-02-13T10:00:34;11.50;99.90
26803;DHT22;14378;51.796;5.808;2023-02-13T10:02:52;11.70;99.90
26803;DHT22;14378;51.796;5.808;2023-02-13T10:07:39;12.00;99.90
26803;DHT22;14378;51.796;5.808;2023-02-13T10:09:41;12.10;99.90
26803;DHT22;14378;51.796;5.808;2023-02-13T10:12:07;12.20;99.90
26803;DHT22;14378;51.796;5.808;2023-02-13T10:14:25;12.40;99.90
26803;DHT22;14378;51.796;5.808;2023-02-13T10:21:03;12.80;99.90
26803;DHT22;14378;51.796;5.808;2023-02-13T10:25:30;13.10;99.90
26803;DHT22;14378;51.796;5.808;2023-02-13T10:27:46;13.20;99.90
26803;DHT22;14378;51.796;5.808;2023-02-13T10:29:56;13.30;99.90
26803;DHT22;14378;51.796;5.808;2023-02-13T10:32:08;13.40;99.90
26803;DHT22;14378;51.796;5.808;2023-02-13T10:34:15;13.60;99.90
26803;DHT22;14378;51.796;5.808;2023-02-13T10:36:24;13.80;99.90
26803;DHT22;14378;51.796;5.808;2023-02-13T10:38:30;13.90;99.90
26803;DHT22;14378;51.796;5.808;2023-02-13T10:40:37;14.00;99.90
26803;DHT22;14378;51.796;5.808;2023-02-13T10:42:45;14.20;99.90
26803;DHT22;14378;51.796;5.808;2023-02-13T10:51:56;14.70;99.90
26803;DHT22;14378;51.796;5.808;2023-02-13T10:56:22;14.90;99.90
26803;DHT22;14378;51.796;5.808;2023-02-13T11:02:44;15.20;99.90
26803;DHT22;14378;51.796;5.808;2023-02-13T11:04:45;15.40;99.90
26803;DHT22;14378;51.796;5.808;2023-02-13T11:06:58;15.50;99.90
26803;DHT22;14378;51.796;5.808;2023-02-13T11:09:05;15.70;99.90
26803;DHT22;14378;51.796;5.808;2023-02-13T11:11:33;15.80;99.90
26803;DHT22;14378;51.796;5.808;2023-02-13T11:13:35;15.80;99.90
26803;DHT22;14378;51.796;5.808;2023-02-13T11:15:35;15.90;99.90
26803;DHT22;14378;51.796;5.808;2023-02-13T11:17:40;16.00;99.90
26803;DHT22;14378;51.796;5.808;2023-02-13T11:19:49;16.00;99.90
26803;DHT22;14378;51.796;5.808;2023-02-13T11:22:07;16.00;99.90
26803;DHT22;14378;51.796;5.808;2023-02-13T11:24:24;16.10;99.90
26803;DHT22;14378;51.796;5.808;2023-02-13T11:26:28;16.20;99.90
26803;DHT22;14378;51.796;5.808;2023-02-13T11:28:35;16.30;99.90
26803;DHT22;14378;51.796;5.808;2023-02-13T11:30:38;16.30;99.90
26803;DHT22;14378;51.796;5.808;2023-02-13T11:32:39;16.40;99.90
26803;DHT22;14378;51.796;5.808;2023-02-13T11:34:39;16.40;99.90
26803;DHT22;14378;51.796;5.808;2023-02-13T11:36:41;16.50;99.90
26803;DHT22;14378;51.796;5.808;2023-02-13T11:38:42;16.50;99.90
26803;DHT22;14378;51.796;5.808;2023-02-13T11:41:04;16.60;99.90
26803;DHT22;14378;51.796;5.808;2023-02-13T11:43:06;16.60;99.90
26803;DHT22;14378;51.796;5.808;2023-02-13T11:45:22;16.70;99.90
26803;DHT22;14378;51.796;5.808;2023-02-13T11:47:33;16.70;99.90
26803;DHT22;14378;51.796;5.808;2023-02-13T11:49:38;16.80;99.90
26803;DHT22;14378;51.796;5.808;2023-02-13T11:51:48;16.90;99.90
26803;DHT22;14378;51.796;5.808;2023-02-13T11:53:49;17.00;99.90
26803;DHT22;14378;51.796;5.808;2023-02-13T12:00:31;17.20;99.90
26803;DHT22;14378;51.796;5.808;2023-02-13T12:02:46;17.30;99.90
26803;DHT22;14378;51.796;5.808;2023-02-13T12:04:50;17.40;99.90
26803;DHT22;14378;51.796;5.808;2023-02-13T12:07:03;17.50;99.90
26803;DHT22;14378;51.796;5.808;2023-02-13T12:09:17;17.50;99.90
26803;DHT22;14378;51.796;5.808;2023-02-13T12:11:32;17.60;99.90
26803;DHT22;14378;51.796;5.808;2023-02-13T12:13:37;17.70;99.90
26803;DHT22;14378;51.796;5.808;2023-02-13T12:15:38;17.80;99.90
26803;DHT22;14378;51.796;5.808;2023-02-13T12:17:43;18.00;99.90
26803;DHT22;14378;51.796;5.808;2023-02-13T12:19:47;18.00;99.90
26803;DHT22;14378;51.796;5.808;2023-02-13T12:51:34;19.20;99.90
26803;DHT22;14378;51.796;5.808;2023-02-13T13:05:37;19.30;99.90
26803;DHT22;14378;51.796;5.808;2023-02-13T13:10:31;19.30;99.90
26803;DHT22;14378;51.796;5.808;2023-02-13T13:12:57;19.30;99.90
26803;DHT22;14378;51.796;5.808;2023-02-13T13:15:14;19.50;99.90
26803;DHT22;14378;51.796;5.808;2023-02-13T13:19:56;19.80;99.90
26803;DHT22;14378;51.796;5.808;2023-02-13T13:22:06;19.90;99.90
26803;DHT22;14378;51.796;5.808;2023-02-13T13:28:40;20.00;99.90
26803;DHT22;14378;51.796;5.808;2023-02-13T13:30:42;20.10;99.90
26803;DHT22;14378;51.796;5.808;2023-02-13T13:32:45;20.10;99.90
26803;DHT22;14378;51.796;5.808;2023-02-13T13:34:48;20.00;99.90
26803;DHT22;14378;51.796;5.808;2023-02-13T13:37:15;19.90;99.90
26803;DHT22;14378;51.796;5.808;2023-02-13T13:39:32;19.90;99.90
26803;DHT22;14378;51.796;5.808;2023-02-13T13:41:44;19.80;99.90
26803;DHT22;14378;51.796;5.808;2023-02-13T13:44:01;19.80;99.90
26803;DHT22;14378;51.796;5.808;2023-02-13T13:46:20;19.70;99.90
26803;DHT22;14378;51.796;5.808;2023-02-13T13:50:44;19.60;99.90
26803;DHT22;14378;51.796;5.808;2023-02-13T13:59:59;19.50;99.90
26803;DHT22;14378;51.796;5.808;2023-02-13T14:08:53;19.60;99.90
26803;DHT22;14378;51.796;5.808;2023-02-13T14:11:00;19.50;99.90
26803;DHT22;14378;51.796;5.808;2023-02-13T14:13:03;19.60;99.90
26803;DHT22;14378;51.796;5.808;2023-02-13T14:15:47;19.60;99.90
26803;DHT22;14378;51.796;5.808;2023-02-13T14:17:50;19.60;99.90
26803;DHT22;14378;51.796;5.808;2023-02-13T14:19:51;19.40;99.90
26803;DHT22;14378;51.796;5.808;2023-02-13T14:21:54;19.30;99.90
26803;DHT22;14378;51.796;5.808;2023-02-13T14:23:59;19.30;99.90
26803;DHT22;14378;51.796;5.808;2023-02-13T14:28:24;19.30;99.90
26803;DHT22;14378;51.796;5.808;2023-02-13T14:30:29;19.20;99.90
26803;DHT22;14378;51.796;5.808;2023-02-13T14:32:32;19.20;99.90
26803;DHT22;14378;51.796;5.808;2023-02-13T14:34:36;19.10;99.90
26803;DHT22;14378;51.796;5.808;2023-02-13T14:36:41;18.90;99.90
26803;DHT22;14378;51.796;5.808;2023-02-13T14:38:44;18.90;99.90
26803;DHT22;14378;51.796;5.808;2023-02-13T14:40:54;18.80;99.90
26803;DHT22;14378;51.796;5.808;2023-02-13T14:42:59;18.80;99.90
26803;DHT22;14378;51.796;5.808;2023-02-13T14:45:04;18.80;99.90
26803;DHT22;14378;51.796;5.808;2023-02-13T14:47:41;18.70;99.90
26803;DHT22;14378;51.796;5.808;2023-02-13T14:49:44;18.60;99.90
26803;DHT22;14378;51.796;5.808;2023-02-13T14:52:03;18.70;99.90
26803;DHT22;14378;51.796;5.808;2023-02-13T14:54:33;18.70;99.90
26803;DHT22;14378;51.796;5.808;2023-02-13T14:56:38;18.70;99.90
26803;DHT22;14378;51.796;5.808;2023-02-13T14:58:52;18.70;99.90
26803;DHT22;14378;51.796;5.808;2023-02-13T15:03:03;18.60;99.90
26803;DHT22;14378;51.796;5.808;2023-02-13T15:07:22;18.60;99.90
26803;DHT22;14378;51.796;5.808;2023-02-13T15:09:27;18.50;99.90
26803;DHT22;14378;51.796;5.808;2023-02-13T15:11:38;18.60;99.90
26803;DHT22;14378;51.796;5.808;2023-02-13T15:13:42;18.50;99.90
26803;DHT22;14378;51.796;5.808;2023-02-13T15:15:47;18.60;99.90
26803;DHT22;14378;51.796;5.808;2023-02-13T15:17:56;18.60;99.90
26803;DHT22;14378;51.796;5.808;2023-02-13T15:20:06;18.60;99.90
26803;DHT22;14378;51.796;5.808;2023-02-13T15:22:29;18.60;99.90
26803;DHT22;14378;51.796;5.808;2023-02-13T15:24:37;18.50;99.90
26803;DHT22;14378;51.796;5.808;2023-02-13T15:26:49;18.40;99.90
26803;DHT22;14378;51.796;5.808;2023-02-13T15:29:02;18.40;99.90
26803;DHT22;14378;51.796;5.808;2023-02-13T15:31:06;18.40;99.90
26803;DHT22;14378;51.796;5.808;2023-02-13T15:33:20;18.40;99.90
26803;DHT22;14378;51.796;5.808;2023-02-13T15:35:24;18.40;99.90
26803;DHT22;14378;51.796;5.808;2023-02-13T15:37:29;18.30;99.90
26803;DHT22;14378;51.796;5.808;2023-02-13T15:39:31;18.30;99.90
26803;DHT22;14378;51.796;5.808;2023-02-13T15:41:38;18.20;99.90
26803;DHT22;14378;51.796;5.808;2023-02-13T15:43:46;18.20;99.90
26803;DHT22;14378;51.796;5.808;2023-02-13T15:45:48;18.10;99.90
26803;DHT22;14378;51.796;5.808;2023-02-13T15:47:49;18.10;99.90
26803;DHT22;14378;51.796;5.808;2023-02-13T15:49:50;18.10;99.90
26803;DHT22;14378;51.796;5.808;2023-02-13T15:52:05;18.10;99.90
26803;DHT22;14378;51.796;5.808;2023-02-13T15:56:24;17.90;99.90